sensor_id;sensor_type;location;lat;lon;timestamp;temperature;humidity
5850;DHT22;2951;47.712;9.400;2024-03-02T00:00:20;5.90;99.90
5850;DHT22;2951;47.712;9.400;2024-03-02T00:02:48;5.90;99.90
5850;DHT22;2951;47.712;9.400;2024-03-02T00:05:20;5.90;99.90
5850;DHT22;2951;47.712;9.400;2024-03-02T00:07:53;5.80;99.90
5850;DHT22;2951;47.712;9.400;2024-03-02T00:10:23;5.90;99.90
5850;DHT22;2951;47.712;9.400;2024-03-02T00:12:55;5.90;99.90
5850;DHT22;2951;47.712;9.400;2024-03-02T00:17:52;5.80;99.90
5850;DHT22;2951;47.712;9.400;2024-03-02T00:20:21;5.80;99.90
5850;DHT22;2951;47.712;9.400;2024-03-02T00:22:48;5.80;99.90
5850;DHT22;2951;47.712;9.400;2024-03-02T00:25:18;5.80;99.90
5850;DHT22;2951;47.712;9.400;2024-03-02T00:27:48;5.80;99.90
5850;DHT22;2951;47.712;9.400;2024-03-02T00:30:33;5.80;99.90
5850;DHT22;2951;47.712;9.400;2024-03-02T00:33:06;5.70;99.90
5850;DHT22;2951;47.712;9.400;2024-03-02T00:35:33;5.60;99.90
5850;DHT22;2951;47.712;9.400;2024-03-02T00:38:06;5.50;99.90
5850;DHT22;2951;47.712;9.400;2024-03-02T00:40:33;5.40;99.90
5850;DHT22;2951;47.712;9.400;2024-03-02T00:43:00;5.40;99.90
5850;DHT22;2951;47.712;9.400;2024-03-02T00:45:27;5.30;99.90
5850;DHT22;2951;47.712;9.400;2024-03-02T00:47:54;5.30;99.90
5850;DHT22;2951;47.712;9.400;2024-03-02T00:50:21;5.30;99.90
5850;DHT22;2951;47.712;9.400;2024-03-02T00:52:55;5.30;99.90
5850;DHT22;2951;47.712;9.400;2024-03-02T00:55:24;5.30;99.90
5850;DHT22;2951;47.712;9.400;2024-03-02T00:57:51;5.20;99.90
5850;DHT22;2951;47.712;9.400;2024-03-02T01:00:18;5.20;99.90
5850;DHT22;2951;47.712;9.400;2024-03-02T01:02:45;5.20;99.90
5850;DHT22;2951;47.712;9.400;2024-03-02T01:05:13;5.20;99.90
5850;DHT22;2951;47.712;9.400;2024-03-02T01:07:45;5.20;99.90
5850;DHT22;2951;47.712;9.400;2024-03-02T01:10:16;5.20;99.90
5850;DHT22;2951;47.712;9.400;2024-03-02T01:12:43;5.20;99.90
5850;DHT22;2951;47.712;9.400;2024-03-02T01:15:10;5.30;99.90
5850;DHT22;2951;47.712;9.400;2024-03-02T01:17:37;5.20;99.90
5850;DHT22;2951;47.712;9.400;2024-03-02T01:20:04;4.90;99.90
5850;DHT22;2951;47.712;9.400;2024-03-02T01:22:31;4.70;99.90
5850;DHT22;2951;47.712;9.400;2024-03-02T01:24:59;4.70;99.90
5850;DHT22;2951;47.712;9.400;2024-03-02T01:27:25;4.60;99.90
5850;DHT22;2951;47.712;9.400;2024-03-02T01:29:53;4.50;99.90
5850;DHT22;2951;47.712;9.400;2024-03-02T01:32:21;4.40;99.90
5850;DHT22;2951;47.712;9.400;2024-03-02T01:34:47;4.40;99.90
5850;DHT22;2951;47.712;9.400;2024-03-02T01:37:14;4.50;99.90
5850;DHT22;2951;47.712;9.400;2024-03-02T01:39:41;4.60;99.90
5850;DHT22;2951;47.712;9.400;2024-03-02T01:42:07;4.70;99.90
5850;DHT22;2951;47.712;9.400;2024-03-02T01:44:34;4.80;99.90
5850;DHT22;2951;47.712;9.400;2024-03-02T01:47:01;4.90;99.90
5850;DHT22;2951;47.712;9.400;2024-03-02T01:49:28;5.00;99.90
5850;DHT22;2951;47.712;9.400;2024-03-02T01:51:54;5.20;99.90
5850;DHT22;2951;47.712;9.400;2024-03-02T01:54:24;5.30;99.90
5850;DHT22;2951;47.712;9.400;2024-03-02T01:56:51;5.40;99.90
5850;DHT22;2951;47.712;9.400;2024-03-02T01:59:18;5.40;99.90
5850;DHT22;2951;47.712;9.400;2024-03-02T02:01:44;5.50;99.90
5850;DHT22;2951;47.712;9.400;2024-03-02T02:04:11;5.40;99.90
5850;DHT22;2951;47.712;9.400;2024-03-02T02:06:40;5.50;99.90
5850;DHT22;2951;47.712;9.400;2024-03-02T02:09:07;5.50;99.90
5850;DHT22;2951;47.712;9.400;2024-03-02T02:11:34;5.60;99.90
5850;DHT22;2951;47.712;9.400;2024-03-02T02:14:01;5.50;99.90
5850;DHT22;2951;47.712;9.400;2024-03-02T02:16:30;5.50;99.90
5850;DHT22;2951;47.712;9.400;2024-03-02T02:18:56;5.50;99.90
5850;DHT22;2951;47.712;9.400;2024-03-02T02:21:23;5.50;99.90
5850;DHT22;2951;47.712;9.400;2024-03-02T02:23:50;5.60;99.90
5850;DHT22;2951;47.712;9.400;2024-03-02T02:26:17;5.50;99.90
5850;DHT22;2951;47.712;9.400;2024-03-02T02:28:43;5.60;99.90
5850;DHT22;2951;47.712;9.400;2024-03-02T02:31:13;5.60;99.90
5850;DHT22;2951;47.712;9.400;2024-03-02T02:33:40;5.60;99.90
5850;DHT22;2951;47.712;9.400;2024-03-02T02:36:07;5.50;99.90
5850;DHT22;2951;47.712;9.400;2024-03-02T02:38:35;5.40;99.90
5850;DHT22;2951;47.712;9.400;2024-03-02T02:41:03;5.30;99.90
5850;DHT22;2951;47.712;9.400;2024-03-02T02:43:30;5.30;99.90
5850;DHT22;2951;47.712;9.400;2024-03-02T02:45:56;5.20;99.90
5850;DHT22;2951;47.712;9.400;2024-03-02T02:48:23;5.20;99.90
5850;DHT22;2951;47.712;9.400;2024-03-02T02:50:50;5.20;99.90
5850;DHT22;2951;47.712;9.400;2024-03-02T02:53:19;5.00;99.90
5850;DHT22;2951;47.712;9.400;2024-03-02T02:55:45;4.90;99.90
5850;DHT22;2951;47.712;9.400;2024-03-02T02:58:12;4.80;99.90
5850;DHT22;2951;47.712;9.400;2024-03-02T03:00:39;4.70;99.90
5850;DHT22;2951;47.712;9.400;2024-03-02T03:03:06;4.70;99.90
5850;DHT22;2951;47.712;9.400;2024-03-02T03:05:33;4.70;99.90
5850;DHT22;2951;47.712;9.400;2024-03-02T03:07:59;4.70;99.90
5850;DHT22;2951;47.712;9.400;2024-03-02T03:10:27;4.70;99.90
5850;DHT22;2951;47.712;9.400;2024-03-02T03:12:54;4.70;99.90
5850;DHT22;2951;47.712;9.400;2024-03-02T03:15:22;4.70;99.90
5850;DHT22;2951;47.712;9.400;2024-03-02T03:17:49;4.60;99.90
5850;DHT22;2951;47.712;9.400;2024-03-02T03:20:17;4.60;99.90
5850;DHT22;2951;47.712;9.400;2024-03-02T03:22:44;4.50;99.90
5850;DHT22;2951;47.712;9.400;2024-03-02T03:25:11;4.30;99.90
5850;DHT22;2951;47.712;9.400;2024-03-02T03:27:37;4.30;99.90
5850;DHT22;2951;47.712;9.400;2024-03-02T03:30:07;4.20;99.90
5850;DHT22;2951;47.712;9.400;2024-03-02T03:32:34;4.30;99.90
5850;DHT22;2951;47.712;9.400;2024-03-02T03:35:00;4.40;99.90
5850;DHT22;2951;47.712;9.400;2024-03-02T03:37:27;4.20;99.90
5850;DHT22;2951;47.712;9.400;2024-03-02T03:39:59;4.10;99.90
5850;DHT22;2951;47.712;9.400;2024-03-02T03:42:26;4.20;99.90
5850;DHT22;2951;47.712;9.400;2024-03-02T03:44:53;4.30;99.90
5850;DHT22;2951;47.712;9.400;2024-03-02T03:47:20;4.20;99.90
5850;DHT22;2951;47.712;9.400;2024-03-02T03:49:47;4.30;99.90
5850;DHT22;2951;47.712;9.400;2024-03-02T03:52:14;4.10;99.90
5850;DHT22;2951;47.712;9.400;2024-03-02T03:54:40;4.10;99.90
5850;DHT22;2951;47.712;9.400;2024-03-02T03:57:09;4.10;99.90
5850;DHT22;2951;47.712;9.400;2024-03-02T03:59:38;4.10;99.90
5850;DHT22;2951;47.712;9.400;2024-03-02T04:02:04;4.20;99.90
5850;DHT22;2951;47.712;9.400;2024-03-02T04:04:31;4.10;99.90
5850;DHT22;2951;47.712;9.400;2024-03-02T04:06:59;4.00;99.90
5850;DHT22;2951;47.712;9.400;2024-03-02T04:09:26;4.10;99.90
5850;DHT22;2951;47.712;9.400;2024-03-02T04:11:53;4.20;99.90
5850;DHT22;2951;47.712;9.400;2024-03-02T04:14:21;4.30;99.90
5850;DHT22;2951;47.712;9.400;2024-03-02T04:16:48;4.30;99.90
5850;DHT22;2951;47.712;9.400;2024-03-02T04:19:15;4.40;99.90
5850;DHT22;2951;47.712;9.400;2024-03-02T04:21:43;4.40;99.90
5850;DHT22;2951;47.712;9.400;2024-03-02T04:24:10;4.50;99.90
5850;DHT22;2951;47.712;9.400;2024-03-02T04:26:36;4.60;99.90
5850;DHT22;2951;47.712;9.400;2024-03-02T04:29:04;4.60;99.90
5850;DHT22;2951;47.712;9.400;2024-03-02T04:31:30;4.70;99.90
5850;DHT22;2951;47.712;9.400;2024-03-02T04:33:57;4.80;99.90
5850;DHT22;2951;47.712;9.400;2024-03-02T04:36:24;4.80;99.90
5850;DHT22;2951;47.712;9.400;2024-03-02T04:38:51;4.90;99.90
5850;DHT22;2951;47.712;9.400;2024-03-02T04:41:17;5.00;99.90
5850;DHT22;2951;47.712;9.400;2024-03-02T04:43:45;5.00;99.90
5850;DHT22;2951;47.712;9.400;2024-03-02T04:46:11;5.00;99.90
5850;DHT22;2951;47.712;9.400;2024-03-02T04:48:38;5.20;99.90
5850;DHT22;2951;47.712;9.400;2024-03-02T04:51:07;5.30;99.90
5850;DHT22;2951;47.712;9.400;2024-03-02T04:53:34;5.30;99.90
5850;DHT22;2951;47.712;9.400;2024-03-02T04:56:01;5.40;99.90
5850;DHT22;2951;47.712;9.400;2024-03-02T04:59:06;5.40;99.90
5850;DHT22;2951;47.712;9.400;2024-03-02T05:01:33;5.40;99.90
5850;DHT22;2951;47.712;9.400;2024-03-02T05:04:00;5.50;99.90
5850;DHT22;2951;47.712;9.400;2024-03-02T05:06:27;5.60;99.90
5850;DHT22;2951;47.712;9.400;2024-03-02T05:08:57;5.50;99.90
5850;DHT22;2951;47.712;9.400;2024-03-02T05:11:23;5.60;99.90
5850;DHT22;2951;47.712;9.400;2024-03-02T05:14:08;5.60;99.90
5850;DHT22;2951;47.712;9.400;2024-03-02T05:16:35;5.60;99.90
5850;DHT22;2951;47.712;9.400;2024-03-02T05:19:02;5.50;99.90
5850;DHT22;2951;47.712;9.400;2024-03-02T05:21:29;5.50;99.90
5850;DHT22;2951;47.712;9.400;2024-03-02T05:23:55;5.60;99.90
5850;DHT22;2951;47.712;9.400;2024-03-02T05:26:22;5.60;99.90
5850;DHT22;2951;47.712;9.400;2024-03-02T05:28:49;5.60;99.90
5850;DHT22;2951;47.712;9.400;2024-03-02T05:31:16;5.70;99.90
5850;DHT22;2951;47.712;9.400;2024-03-02T05:33:45;5.70;99.90
5850;DHT22;2951;47.712;9.400;2024-03-02T05:36:12;5.70;99.90
5850;DHT22;2951;47.712;9.400;2024-03-02T05:38:39;5.80;99.90
5850;DHT22;2951;47.712;9.400;2024-03-02T05:41:05;5.80;99.90
5850;DHT22;2951;47.712;9.400;2024-03-02T05:43:32;5.80;99.90
5850;DHT22;2951;47.712;9.400;2024-03-02T05:45:59;5.80;99.90
5850;DHT22;2951;47.712;9.400;2024-03-02T05:48:26;5.80;99.90
5850;DHT22;2951;47.712;9.400;2024-03-02T05:50:54;5.80;99.90
5850;DHT22;2951;47.712;9.400;2024-03-02T05:53:21;5.70;99.90
5850;DHT22;2951;47.712;9.400;2024-03-02T05:55:47;5.70;99.90
5850;DHT22;2951;47.712;9.400;2024-03-02T05:58:20;5.60;99.90
5850;DHT22;2951;47.712;9.400;2024-03-02T06:01:07;5.50;99.90
5850;DHT22;2951;47.712;9.400;2024-03-02T06:03:35;5.40;99.90
5850;DHT22;2951;47.712;9.400;2024-03-02T06:06:07;5.40;99.90
5850;DHT22;2951;47.712;9.400;2024-03-02T06:08:35;5.40;99.90
5850;DHT22;2951;47.712;9.400;2024-03-02T06:11:02;5.40;99.90
5850;DHT22;2951;47.712;9.400;2024-03-02T06:13:28;5.50;99.90
5850;DHT22;2951;47.712;9.400;2024-03-02T06:15:55;5.40;99.90
5850;DHT22;2951;47.712;9.400;2024-03-02T06:18:24;5.40;99.90
5850;DHT22;2951;47.712;9.400;2024-03-02T06:20:51;5.50;99.90
5850;DHT22;2951;47.712;9.400;2024-03-02T06:23:18;5.60;99.90
5850;DHT22;2951;47.712;9.400;2024-03-02T06:25:46;5.70;99.90
5850;DHT22;2951;47.712;9.400;2024-03-02T06:28:12;5.70;99.90
5850;DHT22;2951;47.712;9.400;2024-03-02T06:30:41;5.70;99.90
5850;DHT22;2951;47.712;9.400;2024-03-02T06:33:09;5.70;99.90
5850;DHT22;2951;47.712;9.400;2024-03-02T06:35:36;5.70;99.90
5850;DHT22;2951;47.712;9.400;2024-03-02T06:38:03;5.80;99.90
5850;DHT22;2951;47.712;9.400;2024-03-02T06:40:31;5.60;99.90
5850;DHT22;2951;47.712;9.400;2024-03-02T06:42:57;5.70;99.90
5850;DHT22;2951;47.712;9.400;2024-03-02T06:45:24;5.60;99.90
5850;DHT22;2951;47.712;9.400;2024-03-02T06:47:51;5.60;99.90
5850;DHT22;2951;47.712;9.400;2024-03-02T06:50:18;5.70;99.90
5850;DHT22;2951;47.712;9.400;2024-03-02T06:52:44;5.80;99.90
5850;DHT22;2951;47.712;9.400;2024-03-02T06:55:12;5.80;99.90
5850;DHT22;2951;47.712;9.400;2024-03-02T06:57:39;5.90;99.90
5850;DHT22;2951;47.712;9.400;2024-03-02T07:00:05;6.00;99.90
5850;DHT22;2951;47.712;9.400;2024-03-02T07:02:35;6.00;99.90
5850;DHT22;2951;47.712;9.400;2024-03-02T07:05:06;6.10;99.90
5850;DHT22;2951;47.712;9.400;2024-03-02T07:07:34;6.10;99.90
5850;DHT22;2951;47.712;9.400;2024-03-02T07:10:04;6.20;99.90
5850;DHT22;2951;47.712;9.400;2024-03-02T07:12:31;6.30;99.90
5850;DHT22;2951;47.712;9.400;2024-03-02T07:14:58;6.30;99.90
5850;DHT22;2951;47.712;9.400;2024-03-02T07:17:31;6.30;99.90
5850;DHT22;2951;47.712;9.400;2024-03-02T07:19:58;6.30;99.90
5850;DHT22;2951;47.712;9.400;2024-03-02T07:22:24;6.40;99.90
5850;DHT22;2951;47.712;9.400;2024-03-02T07:24:51;6.30;99.90
5850;DHT22;2951;47.712;9.400;2024-03-02T07:27:18;6.30;99.90
5850;DHT22;2951;47.712;9.400;2024-03-02T07:29:45;6.30;99.90
5850;DHT22;2951;47.712;9.400;2024-03-02T07:32:13;6.40;99.90
5850;DHT22;2951;47.712;9.400;2024-03-02T07:34:40;6.40;99.90
5850;DHT22;2951;47.712;9.400;2024-03-02T07:37:06;6.40;99.90
5850;DHT22;2951;47.712;9.400;2024-03-02T07:39:35;6.50;99.90
5850;DHT22;2951;47.712;9.400;2024-03-02T07:42:01;6.50;99.90
5850;DHT22;2951;47.712;9.400;2024-03-02T07:44:28;6.50;99.90
5850;DHT22;2951;47.712;9.400;2024-03-02T07:46:57;6.40;99.90
5850;DHT22;2951;47.712;9.400;2024-03-02T07:49:24;6.40;99.90
5850;DHT22;2951;47.712;9.400;2024-03-02T07:51:51;6.40;99.90
5850;DHT22;2951;47.712;9.400;2024-03-02T07:54:19;6.40;99.90
5850;DHT22;2951;47.712;9.400;2024-03-02T07:56:46;6.50;99.90
5850;DHT22;2951;47.712;9.400;2024-03-02T07:59:13;6.50;99.90
5850;DHT22;2951;47.712;9.400;2024-03-02T08:01:40;6.50;99.90
5850;DHT22;2951;47.712;9.400;2024-03-02T08:04:13;6.50;99.90
5850;DHT22;2951;47.712;9.400;2024-03-02T08:06:40;6.50;99.90
5850;DHT22;2951;47.712;9.400;2024-03-02T08:09:07;6.50;99.90
5850;DHT22;2951;47.712;9.400;2024-03-02T08:11:37;6.40;99.90
5850;DHT22;2951;47.712;9.400;2024-03-02T08:14:08;6.40;99.90
5850;DHT22;2951;47.712;9.400;2024-03-02T08:16:34;6.30;99.90
5850;DHT22;2951;47.712;9.400;2024-03-02T08:19:01;6.40;99.90
5850;DHT22;2951;47.712;9.400;2024-03-02T08:21:28;6.50;99.90
5850;DHT22;2951;47.712;9.400;2024-03-02T08:23:57;6.70;99.90
5850;DHT22;2951;47.712;9.400;2024-03-02T08:26:24;6.80;99.90
5850;DHT22;2951;47.712;9.400;2024-03-02T08:28:51;6.60;99.90
5850;DHT22;2951;47.712;9.400;2024-03-02T08:31:18;6.60;99.90
5850;DHT22;2951;47.712;9.400;2024-03-02T08:33:45;6.60;99.90
5850;DHT22;2951;47.712;9.400;2024-03-02T08:36:11;6.60;99.90
5850;DHT22;2951;47.712;9.400;2024-03-02T08:38:38;6.80;99.90
5850;DHT22;2951;47.712;9.400;2024-03-02T08:41:05;7.00;99.90
5850;DHT22;2951;47.712;9.400;2024-03-02T08:43:33;7.20;99.90
5850;DHT22;2951;47.712;9.400;2024-03-02T08:46:00;7.40;99.90
5850;DHT22;2951;47.712;9.400;2024-03-02T08:48:27;7.50;99.90
5850;DHT22;2951;47.712;9.400;2024-03-02T08:50:54;7.60;99.90
5850;DHT22;2951;47.712;9.400;2024-03-02T08:53:21;7.70;99.90
5850;DHT22;2951;47.712;9.400;2024-03-02T08:55:47;7.80;99.90
5850;DHT22;2951;47.712;9.400;2024-03-02T08:58:15;7.90;99.90
5850;DHT22;2951;47.712;9.400;2024-03-02T09:00:41;8.00;99.90
5850;DHT22;2951;47.712;9.400;2024-03-02T09:03:10;7.80;99.90
5850;DHT22;2951;47.712;9.400;2024-03-02T09:05:39;7.90;99.90
5850;DHT22;2951;47.712;9.400;2024-03-02T09:08:09;8.00;99.90
5850;DHT22;2951;47.712;9.400;2024-03-02T09:10:36;7.90;99.90
5850;DHT22;2951;47.712;9.400;2024-03-02T09:13:03;7.90;99.90
5850;DHT22;2951;47.712;9.400;2024-03-02T09:15:30;8.10;99.90
5850;DHT22;2951;47.712;9.400;2024-03-02T09:17:59;8.20;99.90
5850;DHT22;2951;47.712;9.400;2024-03-02T09:20:28;8.40;99.90
5850;DHT22;2951;47.712;9.400;2024-03-02T09:22:54;8.70;99.90
5850;DHT22;2951;47.712;9.400;2024-03-02T09:25:22;8.80;99.90
5850;DHT22;2951;47.712;9.400;2024-03-02T09:27:48;9.00;99.90
5850;DHT22;2951;47.712;9.400;2024-03-02T09:30:15;9.00;99.90
5850;DHT22;2951;47.712;9.400;2024-03-02T09:32:42;9.00;99.90
5850;DHT22;2951;47.712;9.400;2024-03-02T09:35:09;9.10;99.90
5850;DHT22;2951;47.712;9.400;2024-03-02T09:37:35;8.90;99.90
5850;DHT22;2951;47.712;9.400;2024-03-02T09:40:02;8.80;99.90
5850;DHT22;2951;47.712;9.400;2024-03-02T09:42:29;8.80;99.90
5850;DHT22;2951;47.712;9.400;2024-03-02T09:44:56;8.80;99.90
5850;DHT22;2951;47.712;9.400;2024-03-02T09:47:26;8.70;99.90
5850;DHT22;2951;47.712;9.400;2024-03-02T09:49:52;8.70;99.90
5850;DHT22;2951;47.712;9.400;2024-03-02T09:52:20;8.70;99.90
5850;DHT22;2951;47.712;9.400;2024-03-02T09:54:47;8.60;99.90
5850;DHT22;2951;47.712;9.400;2024-03-02T09:57:14;8.80;99.90
5850;DHT22;2951;47.712;9.400;2024-03-02T09:59:41;8.80;99.90
5850;DHT22;2951;47.712;9.400;2024-03-02T10:02:08;8.80;99.90
5850;DHT22;2951;47.712;9.400;2024-03-02T10:04:37;9.00;99.90
5850;DHT22;2951;47.712;9.400;2024-03-02T10:09:42;9.00;99.90
5850;DHT22;2951;47.712;9.400;2024-03-02T10:12:10;9.00;99.90
5850;DHT22;2951;47.712;9.400;2024-03-02T10:14:38;9.20;99.90
5850;DHT22;2951;47.712;9.400;2024-03-02T10:17:06;9.30;99.90
5850;DHT22;2951;47.712;9.400;2024-03-02T10:19:33;9.50;99.90
5850;DHT22;2951;47.712;9.400;2024-03-02T10:22:01;9.50;99.90
5850;DHT22;2951;47.712;9.400;2024-03-02T10:27:14;9.70;99.90
5850;DHT22;2951;47.712;9.400;2024-03-02T10:29:42;9.90;99.90
5850;DHT22;2951;47.712;9.400;2024-03-02T10:32:09;9.90;99.90
5850;DHT22;2951;47.712;9.400;2024-03-02T10:34:39;10.00;99.90
5850;DHT22;2951;47.712;9.400;2024-03-02T10:37:06;10.10;99.90
5850;DHT22;2951;47.712;9.400;2024-03-02T10:39:36;10.30;99.90
5850;DHT22;2951;47.712;9.400;2024-03-02T10:42:06;10.30;99.90
5850;DHT22;2951;47.712;9.400;2024-03-02T10:44:35;10.50;99.90
5850;DHT22;2951;47.712;9.400;2024-03-02T10:47:03;10.70;99.90
5850;DHT22;2951;47.712;9.400;2024-03-02T10:49:31;10.80;99.90
5850;DHT22;2951;47.712;9.400;2024-03-02T10:51:58;10.70;99.90
5850;DHT22;2951;47.712;9.400;2024-03-02T10:54:25;10.80;99.90
5850;DHT22;2951;47.712;9.400;2024-03-02T10:56:53;10.90;99.90
5850;DHT22;2951;47.712;9.400;2024-03-02T11:01:54;11.20;99.90
5850;DHT22;2951;47.712;9.400;2024-03-02T11:04:22;11.20;99.90
5850;DHT22;2951;47.712;9.400;2024-03-02T11:07:14;11.20;99.90
5850;DHT22;2951;47.712;9.400;2024-03-02T11:09:41;11.30;99.90
5850;DHT22;2951;47.712;9.400;2024-03-02T11:14:54;11.60;99.90
5850;DHT22;2951;47.712;9.400;2024-03-02T11:17:22;11.60;99.90
5850;DHT22;2951;47.712;9.400;2024-03-02T11:19:49;11.70;99.90
5850;DHT22;2951;47.712;9.400;2024-03-02T11:22:16;11.80;99.90
5850;DHT22;2951;47.712;9.400;2024-03-02T11:24:48;11.90;99.90
5850;DHT22;2951;47.712;9.400;2024-03-02T11:27:20;12.00;99.90
5850;DHT22;2951;47.712;9.400;2024-03-02T11:30:04;12.10;99.90
5850;DHT22;2951;47.712;9.400;2024-03-02T11:32:31;12.10;99.90
5850;DHT22;2951;47.712;9.400;2024-03-02T11:34:58;12.00;99.90
5850;DHT22;2951;47.712;9.400;2024-03-02T11:37:25;12.20;99.90
5850;DHT22;2951;47.712;9.400;2024-03-02T11:39:52;12.10;99.90
5850;DHT22;2951;47.712;9.400;2024-03-02T11:42:18;12.30;99.90
5850;DHT22;2951;47.712;9.400;2024-03-02T11:44:46;12.30;99.90
5850;DHT22;2951;47.712;9.400;2024-03-02T11:47:14;12.50;99.90
5850;DHT22;2951;47.712;9.400;2024-03-02T11:49:45;12.60;99.90
5850;DHT22;2951;47.712;9.400;2024-03-02T11:52:15;12.80;99.90
5850;DHT22;2951;47.712;9.400;2024-03-02T11:54:44;12.60;99.90
5850;DHT22;2951;47.712;9.400;2024-03-02T11:57:18;12.60;99.90
5850;DHT22;2951;47.712;9.400;2024-03-02T11:59:49;12.60;99.90
5850;DHT22;2951;47.712;9.400;2024-03-02T12:02:19;12.70;99.90
5850;DHT22;2951;47.712;9.400;2024-03-02T12:04:47;12.80;99.90
5850;DHT22;2951;47.712;9.400;2024-03-02T12:07:20;13.00;99.90
5850;DHT22;2951;47.712;9.400;2024-03-02T12:09:48;13.10;99.90
5850;DHT22;2951;47.712;9.400;2024-03-02T12:12:15;13.10;99.90
5850;DHT22;2951;47.712;9.400;2024-03-02T12:14:51;13.30;99.90
5850;DHT22;2951;47.712;9.400;2024-03-02T12:17:19;13.40;99.90
5850;DHT22;2951;47.712;9.400;2024-03-02T12:19:49;13.30;99.90
5850;DHT22;2951;47.712;9.400;2024-03-02T12:22:16;13.10;99.90
5850;DHT22;2951;47.712;9.400;2024-03-02T12:24:43;13.20;99.90
5850;DHT22;2951;47.712;9.400;2024-03-02T12:27:12;13.20;99.90
5850;DHT22;2951;47.712;9.400;2024-03-02T12:29:39;13.50;99.90
5850;DHT22;2951;47.712;9.400;2024-03-02T12:32:06;13.40;99.90
5850;DHT22;2951;47.712;9.400;2024-03-02T12:34:34;13.20;99.90
5850;DHT22;2951;47.712;9.400;2024-03-02T12:37:01;13.10;99.90
5850;DHT22;2951;47.712;9.400;2024-03-02T12:39:28;13.20;99.90
5850;DHT22;2951;47.712;9.400;2024-03-02T12:41:58;13.20;99.90
5850;DHT22;2951;47.712;9.400;2024-03-02T12:44:25;13.20;99.90
5850;DHT22;2951;47.712;9.400;2024-03-02T12:46:51;13.40;99.90
5850;DHT22;2951;47.712;9.400;2024-03-02T12:49:23;13.60;99.90
5850;DHT22;2951;47.712;9.400;2024-03-02T12:51:50;13.80;99.90
5850;DHT22;2951;47.712;9.400;2024-03-02T12:54:21;13.90;99.90
5850;DHT22;2951;47.712;9.400;2024-03-02T12:56:50;14.00;99.90
5850;DHT22;2951;47.712;9.400;2024-03-02T12:59:21;14.00;99.90
5850;DHT22;2951;47.712;9.400;2024-03-02T13:01:54;14.00;99.90
5850;DHT22;2951;47.712;9.400;2024-03-02T13:04:24;13.80;99.90
5850;DHT22;2951;47.712;9.400;2024-03-02T13:06:55;13.70;99.90
5850;DHT22;2951;47.712;9.400;2024-03-02T13:09:25;13.70;99.90
5850;DHT22;2951;47.712;9.400;2024-03-02T13:11:52;13.60;99.90
5850;DHT22;2951;47.712;9.400;2024-03-02T13:14:21;13.60;99.90
5850;DHT22;2951;47.712;9.400;2024-03-02T13:16:48;13.80;99.90
5850;DHT22;2951;47.712;9.400;2024-03-02T13:19:17;13.90;99.90
5850;DHT22;2951;47.712;9.400;2024-03-02T13:21:45;14.10;99.90
5850;DHT22;2951;47.712;9.400;2024-03-02T13:24:15;14.10;99.90
5850;DHT22;2951;47.712;9.400;2024-03-02T13:26:42;14.20;99.90
5850;DHT22;2951;47.712;9.400;2024-03-02T13:29:09;14.20;99.90
5850;DHT22;2951;47.712;9.400;2024-03-02T13:31:36;14.00;99.90
5850;DHT22;2951;47.712;9.400;2024-03-02T13:34:02;14.10;99.90
5850;DHT22;2951;47.712;9.400;2024-03-02T13:36:30;14.10;99.90
5850;DHT22;2951;47.712;9.400;2024-03-02T13:38:58;14.10;99.90
5850;DHT22;2951;47.712;9.400;2024-03-02T13:41:25;14.20;99.90
5850;DHT22;2951;47.712;9.400;2024-03-02T13:43:51;14.20;99.90
5850;DHT22;2951;47.712;9.400;2024-03-02T13:46:19;14.60;99.90
5850;DHT22;2951;47.712;9.400;2024-03-02T13:48:47;15.00;99.90
5850;DHT22;2951;47.712;9.400;2024-03-02T13:51:14;15.30;99.90
5850;DHT22;2951;47.712;9.400;2024-03-02T13:53:45;15.40;99.90
5850;DHT22;2951;47.712;9.400;2024-03-02T13:56:11;15.50;99.90
5850;DHT22;2951;47.712;9.400;2024-03-02T13:58:38;15.50;99.90
5850;DHT22;2951;47.712;9.400;2024-03-02T14:01:08;15.20;99.90
5850;DHT22;2951;47.712;9.400;2024-03-02T14:03:35;15.50;99.90
5850;DHT22;2951;47.712;9.400;2024-03-02T14:06:03;15.60;99.90
5850;DHT22;2951;47.712;9.400;2024-03-02T14:08:31;15.60;99.90
5850;DHT22;2951;47.712;9.400;2024-03-02T14:11:00;15.90;99.90
5850;DHT22;2951;47.712;9.400;2024-03-02T14:13:29;16.10;99.90
5850;DHT22;2951;47.712;9.400;2024-03-02T14:15:55;16.40;99.90
5850;DHT22;2951;47.712;9.400;2024-03-02T14:18:22;16.20;99.90
5850;DHT22;2951;47.712;9.400;2024-03-02T14:20:49;16.80;99.90
5850;DHT22;2951;47.712;9.400;2024-03-02T14:23:22;17.60;99.90
5850;DHT22;2951;47.712;9.400;2024-03-02T14:25:49;17.40;99.90
5850;DHT22;2951;47.712;9.400;2024-03-02T14:28:15;16.70;99.90
5850;DHT22;2951;47.712;9.400;2024-03-02T14:31:06;16.80;99.90
5850;DHT22;2951;47.712;9.400;2024-03-02T14:33:32;16.40;99.90
5850;DHT22;2951;47.712;9.400;2024-03-02T14:36:01;16.40;99.90
5850;DHT22;2951;47.712;9.400;2024-03-02T14:38:27;16.80;99.90
5850;DHT22;2951;47.712;9.400;2024-03-02T14:40:55;17.00;99.90
5850;DHT22;2951;47.712;9.400;2024-03-02T14:43:22;17.00;99.90
5850;DHT22;2951;47.712;9.400;2024-03-02T14:45:49;16.60;99.90
5850;DHT22;2951;47.712;9.400;2024-03-02T14:48:16;16.40;99.90
5850;DHT22;2951;47.712;9.400;2024-03-02T14:50:43;15.90;99.90
5850;DHT22;2951;47.712;9.400;2024-03-02T14:53:10;16.30;99.90
5850;DHT22;2951;47.712;9.400;2024-03-02T14:55:36;16.00;99.90
5850;DHT22;2951;47.712;9.400;2024-03-02T14:58:03;16.20;99.90
5850;DHT22;2951;47.712;9.400;2024-03-02T15:00:30;15.80;99.90
5850;DHT22;2951;47.712;9.400;2024-03-02T15:02:57;15.60;99.90
5850;DHT22;2951;47.712;9.400;2024-03-02T15:05:24;15.50;99.90
5850;DHT22;2951;47.712;9.400;2024-03-02T15:07:54;15.20;99.90
5850;DHT22;2951;47.712;9.400;2024-03-02T15:10:21;15.00;99.90
5850;DHT22;2951;47.712;9.400;2024-03-02T15:12:53;14.70;99.90
5850;DHT22;2951;47.712;9.400;2024-03-02T15:15:20;14.70;99.90
5850;DHT22;2951;47.712;9.400;2024-03-02T15:17:46;14.70;99.90
5850;DHT22;2951;47.712;9.400;2024-03-02T15:20:14;14.90;99.90
5850;DHT22;2951;47.712;9.400;2024-03-02T15:22:40;14.90;99.90
5850;DHT22;2951;47.712;9.400;2024-03-02T15:25:08;14.80;99.90
5850;DHT22;2951;47.712;9.400;2024-03-02T15:27:35;14.70;99.90
5850;DHT22;2951;47.712;9.400;2024-03-02T15:30:02;14.70;99.90
5850;DHT22;2951;47.712;9.400;2024-03-02T15:32:29;14.50;99.90
5850;DHT22;2951;47.712;9.400;2024-03-02T15:34:57;14.30;99.90
5850;DHT22;2951;47.712;9.400;2024-03-02T15:37:24;14.10;99.90
5850;DHT22;2951;47.712;9.400;2024-03-02T15:39:51;14.10;99.90
5850;DHT22;2951;47.712;9.400;2024-03-02T15:42:20;14.00;99.90
5850;DHT22;2951;47.712;9.400;2024-03-02T15:44:49;13.90;99.90
5850;DHT22;2951;47.712;9.400;2024-03-02T15:47:17;13.80;99.90
5850;DHT22;2951;47.712;9.400;2024-03-02T15:49:43;13.70;99.90
5850;DHT22;2951;47.712;9.400;2024-03-02T15:52:11;13.70;99.90
5850;DHT22;2951;47.712;9.400;2024-03-02T15:54:39;13.60;99.90
5850;DHT22;2951;47.712;9.400;2024-03-02T15:57:06;13.60;99.90
5850;DHT22;2951;47.712;9.400;2024-03-02T15:59:33;13.50;99.90
5850;DHT22;2951;47.712;9.400;2024-03-02T16:02:03;13.40;99.90
5850;DHT22;2951;47.712;9.400;2024-03-02T16:04:32;13.40;99.90
5850;DHT22;2951;47.712;9.400;2024-03-02T16:07:02;13.30;99.90
5850;DHT22;2951;47.712;9.400;2024-03-02T16:09:31;13.30;99.90
5850;DHT22;2951;47.712;9.400;2024-03-02T16:12:00;13.30;99.90
5850;DHT22;2951;47.712;9.400;2024-03-02T16:14:27;13.30;99.90
5850;DHT22;2951;47.712;9.400;2024-03-02T16:16:53;13.20;99.90
5850;DHT22;2951;47.712;9.400;2024-03-02T16:19:20;13.20;99.90
5850;DHT22;2951;47.712;9.400;2024-03-02T16:21:55;13.10;99.90
5850;DHT22;2951;47.712;9.400;2024-03-02T16:24:24;13.10;99.90
5850;DHT22;2951;47.712;9.400;2024-03-02T16:26:51;13.00;99.90
5850;DHT22;2951;47.712;9.400;2024-03-02T16:29:18;12.90;99.90